createdAt,value
2022-09-28T00:00:53.717Z,19.05
2022-09-28T00:06:18.789Z,19.04
2022-09-28T00:11:40.482Z,19.03
2022-09-28T00:17:02.100Z,19.03
2022-09-28T00:22:23.798Z,19.03
2022-09-28T00:27:50.171Z,19.02
2022-09-28T00:33:11.847Z,19.00
2022-09-28T00:38:33.492Z,18.99
2022-09-28T00:44:27.133Z,19.00
2022-09-28T00:49:59.975Z,18.98
2022-09-28T00:55:29.347Z,18.97
2022-09-28T01:00:51.158Z,18.96
2022-09-28T01:06:20.662Z,18.95
2022-09-28T01:11:43.232Z,18.95
2022-09-28T01:22:53.978Z,18.93
2022-09-28T01:28:18.391Z,18.90
2022-09-28T01:33:46.007Z,18.89
2022-09-28T01:39:33.276Z,18.89
2022-09-28T01:45:00.896Z,18.88
2022-09-28T01:50:26.201Z,18.86
2022-09-28T01:55:52.762Z,18.86
2022-09-28T02:01:21.507Z,18.86
2022-09-28T02:06:49.325Z,18.85
2022-09-28T02:12:16.366Z,18.84
2022-09-28T02:17:38.282Z,18.84
2022-09-28T02:23:02.953Z,18.83
2022-09-28T02:28:24.583Z,18.83
2022-09-28T02:33:47.688Z,18.82
2022-09-28T02:39:17.897Z,18.82
2022-09-28T02:44:50.605Z,18.81
2022-09-28T02:50:29.907Z,18.82
2022-09-28T02:56:13.080Z,18.80
2022-09-28T03:01:45.985Z,18.77
2022-09-28T03:07:26.022Z,18.79
2022-09-28T03:12:49.167Z,18.77
2022-09-28T03:18:11.082Z,18.76
2022-09-28T03:23:33.298Z,18.76
2022-09-28T03:28:54.942Z,18.75
2022-09-28T03:34:16.564Z,18.74
2022-09-28T03:39:38.259Z,18.74
2022-09-28T03:44:59.958Z,18.73
2022-09-28T03:50:21.685Z,18.72
2022-09-28T03:55:43.386Z,18.72
2022-09-28T04:01:10.758Z,18.71
2022-09-28T04:06:34.597Z,18.71
2022-09-28T04:12:03.836Z,18.69
2022-09-28T04:17:26.071Z,18.70
2022-09-28T04:22:47.751Z,18.68
2022-09-28T04:28:28.306Z,18.68
2022-09-28T04:33:50.006Z,18.67
2022-09-28T04:39:13.199Z,18.67
2022-09-28T04:44:34.846Z,18.65
2022-09-28T04:49:56.587Z,18.65
2022-09-28T04:55:18.306Z,18.65
2022-09-28T05:00:40.319Z,18.64
2022-09-28T05:06:01.996Z,18.63
2022-09-28T05:11:24.245Z,18.66
2022-09-28T05:16:46.039Z,18.76
2022-09-28T05:22:11.544Z,18.81
2022-09-28T05:27:33.191Z,18.86
2022-09-28T05:32:54.867Z,18.87
2022-09-28T05:38:16.532Z,18.88
2022-09-28T05:43:38.675Z,18.88
2022-09-28T05:49:00.571Z,18.86
2022-09-28T05:54:22.243Z,18.85
2022-09-28T05:59:43.996Z,18.85
2022-09-28T06:05:06.043Z,18.83
2022-09-28T06:10:28.803Z,18.81
2022-09-28T06:15:50.583Z,18.79
2022-09-28T06:21:13.628Z,18.82
2022-09-28T06:26:35.252Z,18.85
2022-09-28T06:31:56.976Z,18.90
2022-09-28T06:37:18.689Z,19.01
2022-09-28T06:42:40.414Z,19.07
2022-09-28T06:48:03.085Z,19.16
2022-09-28T06:53:24.771Z,19.22
2022-09-28T06:58:46.466Z,19.24
2022-09-28T07:04:08.148Z,19.27
2022-09-28T07:09:33.135Z,19.33
2022-09-28T07:14:57.622Z,19.38
2022-09-28T07:20:19.865Z,19.48
2022-09-28T07:25:45.668Z,19.58
2022-09-28T07:31:07.941Z,20.00
2022-09-28T07:36:30.443Z,21.74
2022-09-28T07:41:56.754Z,22.06
2022-09-28T07:47:30.878Z,21.65
2022-09-28T07:52:58.651Z,21.09
2022-09-28T07:58:20.934Z,20.60
2022-09-28T08:03:48.066Z,20.28
2022-09-28T08:09:09.872Z,20.10
2022-09-28T08:14:34.461Z,20.09
2022-09-28T08:20:14.464Z,19.97
2022-09-28T08:25:38.357Z,19.89
2022-09-28T08:31:03.786Z,19.84
2022-09-28T08:36:25.431Z,19.74
2022-09-28T08:42:12.304Z,19.77
2022-09-28T08:48:23.383Z,19.69
2022-09-28T08:53:54.014Z,19.63
2022-09-28T08:59:27.176Z,19.63
2022-09-28T09:04:51.734Z,19.60
2022-09-28T09:10:35.567Z,19.61
2022-09-28T09:16:19.301Z,19.56
2022-09-28T09:21:58.437Z,19.56
2022-09-28T09:27:40.271Z,19.53
2022-09-28T09:33:11.132Z,19.52
2022-09-28T09:39:14.554Z,19.54
2022-09-28T09:45:01.530Z,19.53
2022-09-28T09:50:47.942Z,19.50
2022-09-28T09:56:26.899Z,19.48
2022-09-28T10:01:49.261Z,19.45
2022-09-28T10:07:20.899Z,19.45
2022-09-28T10:12:42.600Z,19.42
2022-09-28T10:18:10.718Z,19.41
2022-09-28T10:23:36.328Z,19.38
2022-09-28T10:29:01.420Z,19.33
2022-09-28T10:34:29.289Z,19.35
2022-09-28T10:39:55.966Z,19.33
2022-09-28T10:45:23.395Z,19.35
2022-09-28T10:50:58.930Z,19.37
2022-09-28T10:56:22.491Z,19.35
2022-09-28T11:01:44.317Z,19.33
2022-09-28T11:07:25.000Z,19.34
2022-09-28T11:12:48.631Z,19.33
2022-09-28T11:18:25.011Z,19.33
2022-09-28T11:24:19.249Z,19.31
2022-09-28T11:29:43.466Z,19.28
2022-09-28T11:35:05.897Z,19.24
2022-09-28T11:40:27.570Z,19.26
2022-09-28T11:46:01.634Z,19.28
2022-09-28T11:51:36.471Z,19.31
2022-09-28T11:57:02.013Z,19.31
2022-09-28T12:02:49.833Z,19.30
2022-09-28T12:08:29.123Z,19.34
2022-09-28T12:13:54.145Z,19.34
2022-09-28T12:19:21.830Z,19.34
2022-09-28T12:24:47.789Z,19.34
2022-09-28T12:30:19.537Z,19.36
2022-09-28T12:35:59.297Z,19.36
2022-09-28T12:42:05.739Z,19.34
2022-09-28T12:47:54.158Z,19.35
2022-09-28T12:53:30.063Z,19.34
2022-09-28T12:59:29.117Z,19.33
2022-09-28T13:05:24.076Z,19.31
2022-09-28T13:10:52.897Z,19.27
2022-09-28T13:16:33.868Z,19.25
2022-09-28T13:22:13.547Z,19.21
2022-09-28T13:27:40.686Z,19.19
2022-09-28T13:33:05.666Z,19.17
2022-09-28T13:38:27.273Z,19.14
2022-09-28T13:44:06.775Z,19.14
2022-09-28T13:49:37.279Z,19.13
2022-09-28T13:55:11.091Z,19.08
2022-09-28T14:00:46.666Z,19.09
2022-09-28T14:06:20.537Z,19.08
2022-09-28T14:12:46.234Z,19.04
2022-09-28T14:18:29.649Z,19.08
2022-09-28T14:24:09.337Z,19.06
2022-09-28T14:29:34.546Z,19.08
2022-09-28T14:35:00.945Z,19.06
2022-09-28T14:40:49.572Z,19.03
2022-09-28T14:46:11.824Z,19.00
2022-09-28T14:51:35.517Z,18.99
2022-09-28T14:57:23.182Z,19.01
2022-09-28T15:02:50.062Z,18.98
2022-09-28T15:08:12.192Z,18.93
2022-09-28T15:13:34.118Z,18.94
2022-09-28T15:19:13.485Z,18.95
2022-09-28T15:24:35.307Z,18.95
2022-09-28T15:30:00.730Z,18.98
2022-09-28T15:35:27.166Z,18.99
2022-09-28T15:40:49.099Z,19.02
2022-09-28T15:46:15.703Z,19.07
2022-09-28T15:51:52.904Z,19.11
2022-09-28T15:57:33.052Z,19.12
2022-09-28T16:03:22.496Z,19.12
2022-09-28T16:08:46.687Z,19.12
2022-09-28T16:14:24.021Z,19.15
2022-09-28T16:19:48.746Z,19.13
2022-09-28T16:25:20.148Z,19.14
2022-09-28T16:31:00.359Z,19.15
2022-09-28T16:36:23.398Z,19.13
2022-09-28T16:41:59.750Z,19.12
2022-09-28T16:47:21.395Z,19.07
2022-09-28T16:53:02.394Z,19.05
2022-09-28T16:58:25.295Z,19.03
2022-09-28T17:03:48.933Z,18.98
2022-09-28T17:09:13.019Z,19.00
2022-09-28T17:14:34.774Z,19.01
2022-09-28T17:19:59.100Z,19.02
2022-09-28T17:25:23.114Z,19.02
2022-09-28T17:30:45.050Z,19.03
2022-09-28T17:36:07.264Z,19.01
2022-09-28T17:41:29.131Z,19.04
2022-09-28T17:46:51.212Z,19.06
2022-09-28T17:52:13.289Z,19.10
2022-09-28T17:57:34.952Z,19.12
2022-09-28T18:02:58.583Z,19.12
2022-09-28T18:08:21.338Z,19.14
2022-09-28T18:13:46.068Z,19.15
2022-09-28T18:19:07.853Z,19.14
2022-09-28T18:24:30.039Z,19.12
2022-09-28T18:29:51.750Z,19.11
2022-09-28T18:35:13.485Z,19.11
2022-09-28T18:40:36.229Z,19.08
2022-09-28T18:45:58.075Z,19.07
2022-09-28T18:51:20.678Z,19.08
2022-09-28T18:56:42.340Z,19.06
2022-09-28T19:02:04.867Z,19.07
2022-09-28T19:07:27.294Z,19.06
2022-09-28T19:12:49.035Z,19.06
2022-09-28T19:18:10.670Z,19.05
2022-09-28T19:23:33.130Z,19.07
2022-09-28T19:28:58.474Z,19.09
2022-09-28T19:34:20.375Z,19.11
2022-09-28T19:39:42.191Z,19.14
2022-09-28T19:45:10.974Z,19.16
2022-09-28T19:50:33.097Z,19.18
2022-09-28T19:55:56.761Z,19.20
2022-09-28T20:01:18.493Z,19.21
2022-09-28T20:06:40.817Z,19.22
2022-09-28T20:12:02.544Z,19.24
2022-09-28T20:17:24.283Z,19.25
2022-09-28T20:22:46.219Z,19.22
2022-09-28T20:28:08.026Z,19.21
2022-09-28T20:33:31.128Z,19.18
2022-09-28T20:38:54.468Z,19.17
2022-09-28T20:44:16.251Z,19.13
2022-09-28T20:49:38.066Z,19.09
2022-09-28T20:54:59.705Z,19.06
2022-09-28T21:00:21.509Z,19.03
2022-09-28T21:05:43.348Z,19.02
2022-09-28T21:11:05.022Z,19.00
2022-09-28T21:16:28.893Z,18.98
2022-09-28T21:21:51.399Z,18.96
2022-09-28T21:27:13.056Z,18.94
2022-09-28T21:32:35.390Z,18.93
2022-09-28T21:37:57.590Z,18.90
2022-09-28T21:43:19.247Z,18.88
2022-09-28T21:48:41.107Z,18.86
2022-09-28T21:54:02.759Z,18.85
2022-09-28T21:59:25.229Z,18.83
2022-09-28T22:04:47.150Z,18.82
2022-09-28T22:10:13.432Z,18.80
2022-09-28T22:15:35.267Z,18.79
2022-09-28T22:21:09.946Z,18.80
2022-09-28T22:26:33.787Z,18.76
2022-09-28T22:32:02.180Z,18.75
2022-09-28T22:37:26.011Z,18.75
2022-09-28T22:42:47.693Z,18.72
2022-09-28T22:48:10.266Z,18.71
2022-09-28T22:53:33.341Z,18.71
2022-09-28T22:58:55.314Z,18.70
2022-09-28T23:04:16.933Z,18.69
2022-09-28T23:09:38.598Z,18.66
2022-09-28T23:15:00.237Z,18.64
2022-09-28T23:20:22.469Z,18.64
2022-09-28T23:25:44.137Z,18.62
2022-09-28T23:31:18.511Z,18.63
2022-09-28T23:36:40.970Z,18.62
2022-09-28T23:42:03.226Z,18.61
2022-09-28T23:47:24.851Z,18.60
2022-09-28T23:52:48.320Z,18.58
2022-09-28T23:58:11.818Z,18.58
